Observation data for Morton on 02/15/2017      Previous  Date  Next       Current Mesonet Observations  Soil Data  Daily Summary Page  Observations in Plain Language
KMNS 150600Z 30008KT 00/M02 A3021 RMK A01 T00021022  RH  085%=      5-min Rain = 0
KMNS 150605Z 30008KT 00/M02 A3021 RMK A01 T00011022  RH  086%=      5-min Rain = 0
KMNS 150610Z 30008KT 00/02 A3021 RMK A01 T00-00-22  RH  086%=      5-min Rain = 0
KMNS 150615Z 30008KT 00/02 A3021 RMK A01 T00-00-22  RH  086%=      5-min Rain = 0
KMNS 150620Z 30008KT 00/02 A3021 RMK A01 T00000-23  RH  085%=      5-min Rain = 0
KMNS 150625Z 30009KT 00/02 A3021 RMK A01 T00000-23  RH  085%=      5-min Rain = 0
KMNS 150630Z 30009KT 00/M02 A3021 RMK A01 T00011024  RH  084%=      5-min Rain = 0
KMNS 150635Z 31009KT 00/M02 A3021 RMK A01 T00011024  RH  084%=      5-min Rain = 0
KMNS 150640Z 31010KT 00/M02 A3021 RMK A01 T00011024  RH  084%=      5-min Rain = 0
KMNS 150645Z 31010KT 00/M03 A3021 RMK A01 T00011025  RH  084%=      5-min Rain = 0
KMNS 150650Z 31010KT 00/M03 A3021 RMK A01 T00021025  RH  083%=      5-min Rain = 0
KMNS 150655Z 31010KT 00/M03 A3021 RMK A01 T00011025  RH  083%=      5-min Rain = 0
KMNS 150700Z 31010KT 00/M03 A3021 RMK A01 T00021025  RH  083%=      5-min Rain = 0
KMNS 150705Z 30009KT 00/M03 A3021 RMK A01 T00021026  RH  083%=      5-min Rain = 0
KMNS 150710Z 30008KT 00/03 A3021 RMK A01 T00-00-27  RH  083%=      5-min Rain = 0
KMNS 150715Z 29008KT M00/M03 A3021 RMK A01 T10021028  RH  084%=      5-min Rain = 0
KMNS 150720Z 29008KT M00/M03 A3021 RMK A01 T10041028  RH  085%=      5-min Rain = 0
KMNS 150725Z 29008KT M00/M03 A3021 RMK A01 T10041027  RH  086%=      5-min Rain = 0
KMNS 150730Z 29008KT M01/M03 A3021 RMK A01 T10051027  RH  086%=      5-min Rain = 0
KMNS 150735Z 28008KT M01/M03 A3021 RMK A01 T10061027  RH  087%=      5-min Rain = 0
KMNS 150740Z 29009KT M01/M03 A3021 RMK A01 T10071027  RH  087%=      5-min Rain = 0
KMNS 150745Z 29009KT M01/M03 A3021 RMK A01 T10071028  RH  087%=      5-min Rain = 0
KMNS 150750Z 29009KT M01/M03 A3021 RMK A01 T10081029  RH  087%=      5-min Rain = 0
KMNS 150755Z 29008KT M01/M03 A3021 RMK A01 T10071028  RH  087%=      5-min Rain = 0
KMNS 150800Z 29008KT M01/M03 A3022 RMK A01 T10061028  RH  086%=      5-min Rain = 0
KMNS 150805Z 28008KT M01/M03 A3022 RMK A01 T10071028  RH  087%=      5-min Rain = 0
KMNS 150810Z 27007KT M01/M03 A3022 RMK A01 T10101030  RH  087%=      5-min Rain = 0
KMNS 150815Z 28008KT M01/M03 A3022 RMK A01 T10101030  RH  088%=      5-min Rain = 0
KMNS 150820Z 28008KT M01/M03 A3022 RMK A01 T10101030  RH  088%=      5-min Rain = 0
KMNS 150825Z 28007KT M01/M03 A3022 RMK A01 T10101029  RH  088%=      5-min Rain = 0
KMNS 150830Z 29008KT M01/M03 A3022 RMK A01 T10101029  RH  087%=      5-min Rain = 0
KMNS 150835Z 29009KT M01/M03 A3022 RMK A01 T10091030  RH  087%=      5-min Rain = 0
KMNS 150840Z 29008KT M01/M03 A3022 RMK A01 T10091030  RH  087%=      5-min Rain = 0
KMNS 150845Z 29008KT M01/M03 A3022 RMK A01 T10091031  RH  086%=      5-min Rain = 0
KMNS 150850Z 30008KT M01/M03 A3022 RMK A01 T10111033  RH  086%=      5-min Rain = 0
KMNS 150855Z 30008KT M01/M03 A3022 RMK A01 T10121033  RH  086%=      5-min Rain = 0
KMNS 150900Z 30008KT M01/M03 A3022 RMK A01 T10111032  RH  087%=      5-min Rain = 0
KMNS 150905Z 30008KT M01/M03 A3021 RMK A01 T10081031  RH  086%=      5-min Rain = 0
KMNS 150910Z 30009KT M01/M03 A3021 RMK A01 T10071031  RH  085%=      5-min Rain = 0
KMNS 150915Z 30009KT M01/M03 A3021 RMK A01 T10061032  RH  084%=      5-min Rain = 0
KMNS 150920Z 31010KT M01/M03 A3021 RMK A01 T10051032  RH  083%=      5-min Rain = 0
KMNS 150925Z 31010KT M01/M03 A3021 RMK A01 T10051033  RH  083%=      5-min Rain = 0
KMNS 150930Z 31009KT M01/M03 A3021 RMK A01 T10061033  RH  082%=      5-min Rain = 0
KMNS 150935Z 31010KT M01/M03 A3021 RMK A01 T10051034  RH  081%=      5-min Rain = 0
KMNS 150940Z 31010KT M00/M04 A3021 RMK A01 T10041035  RH  081%=      5-min Rain = 0
KMNS 150945Z 31010KT M01/M04 A3021 RMK A01 T10051035  RH  081%=      5-min Rain = 0
KMNS 150950Z 31009KT M01/M04 A3021 RMK A01 T10061036  RH  081%=      5-min Rain = 0
KMNS 150955Z 31009KT M01/M04 A3021 RMK A01 T10071036  RH  082%=      5-min Rain = 0
KMNS 151000Z 31009KT M01/M04 A3021 RMK A01 T10061036  RH  081%=      5-min Rain = 0
KMNS 151005Z 31009KT M01/M04 A3021 RMK A01 T10061036  RH  081%=      5-min Rain = 0
KMNS 151010Z 31009KT M01/M04 A3021 RMK A01 T10061036  RH  081%=      5-min Rain = 0
KMNS 151015Z 31009KT M01/M04 A3021 RMK A01 T10051037  RH  080%=      5-min Rain = 0
KMNS 151020Z 30009KT M01/M04 A3021 RMK A01 T10061037  RH  081%=      5-min Rain = 0
KMNS 151025Z 30009KT M01/M04 A3021 RMK A01 T10061037  RH  080%=      5-min Rain = 0
KMNS 151030Z 30009KT M01/M04 A3021 RMK A01 T10061038  RH  080%=      5-min Rain = 0
KMNS 151035Z 30009KT M01/M04 A3021 RMK A01 T10061038  RH  080%=      5-min Rain = 0
KMNS 151040Z 30008KT M01/M04 A3021 RMK A01 T10061038  RH  080%=      5-min Rain = 0
KMNS 151045Z 30008KT M01/M04 A3021 RMK A01 T10061039  RH  080%=      5-min Rain = 0
KMNS 151050Z 30008KT M01/M04 A3021 RMK A01 T10071039  RH  080%=      5-min Rain = 0
KMNS 151055Z 30009KT M00/M04 A3021 RMK A01 T10021038  RH  078%=      5-min Rain = 0
KMNS 151100Z 30009KT M00/M04 A3021 RMK A01 T10031040  RH  077%=      5-min Rain = 0
KMNS 151105Z 30008KT M01/M04 A3021 RMK A01 T10071040  RH  079%=      5-min Rain = 0
KMNS 151110Z 30008KT M01/M04 A3021 RMK A01 T10081040  RH  080%=      5-min Rain = 0
KMNS 151115Z 30007KT M01/M04 A3022 RMK A01 T10091040  RH  080%=      5-min Rain = 0
KMNS 151120Z 30007KT M01/M04 A3022 RMK A01 T10101040  RH  081%=      5-min Rain = 0
KMNS 151125Z 30008KT M01/M04 A3022 RMK A01 T10091040  RH  081%=      5-min Rain = 0
KMNS 151130Z 31009G14KT M01/M04 A3022 RMK A01 T10051040  RH  078%=      5-min Rain = 0
KMNS 151135Z 31009KT M01/M04 A3022 RMK A01 T10071041  RH  079%=      5-min Rain = 0
KMNS 151140Z 31009KT M01/M04 A3022 RMK A01 T10101041  RH  080%=      5-min Rain = 0
KMNS 151145Z 31009KT M01/M04 A3022 RMK A01 T10111040  RH  081%=      5-min Rain = 0
KMNS 151150Z 31009KT M01/M04 A3022 RMK A01 T10101040  RH  081%=      5-min Rain = 0
KMNS 151155Z 31009KT M01/M04 A3022 RMK A01 T10091041  RH  080%=      5-min Rain = 0
KMNS 151200Z 31009KT M01/M04 A3022 RMK A01 T10091041  RH  080%=      5-min Rain = 0
KMNS 151205Z 31009KT M01/M04 A3022 RMK A01 T10101041  RH  080%=      5-min Rain = 0
KMNS 151210Z 31009KT M01/M04 A3022 RMK A01 T10091041  RH  080%=      5-min Rain = 0
KMNS 151215Z 31010KT M01/M04 A3022 RMK A01 T10091041  RH  080%=      5-min Rain = 0
KMNS 151220Z 32010KT M01/M04 A3022 RMK A01 T10091041  RH  079%=      5-min Rain = 0
KMNS 151225Z 32009KT M01/M04 A3022 RMK A01 T10091042  RH  079%=      5-min Rain = 0
KMNS 151230Z 32010KT M01/M04 A3022 RMK A01 T10081042  RH  079%=      5-min Rain = 0
KMNS 151235Z 32010KT M01/M04 A3023 RMK A01 T10081042  RH  079%=      5-min Rain = 0
KMNS 151240Z 32009KT M01/M04 A3023 RMK A01 T10091043  RH  078%=      5-min Rain = 0
KMNS 151245Z 32009KT M01/M04 A3023 RMK A01 T10091043  RH  079%=      5-min Rain = 0
KMNS 151250Z 32009KT M01/M04 A3023 RMK A01 T10101043  RH  079%=      5-min Rain = 0
KMNS 151255Z 32009KT M01/M04 A3023 RMK A01 T10111043  RH  080%=      5-min Rain = 0
KMNS 151300Z 32009KT M01/M04 A3023 RMK A01 T10121044  RH  080%=      5-min Rain = 0
KMNS 151305Z 32009KT M01/M04 A3024 RMK A01 T10131044  RH  080%=      5-min Rain = 0
KMNS 151310Z 32008KT M01/M04 A3024 RMK A01 T10141044  RH  081%=      5-min Rain = 0
KMNS 151315Z 32008KT M02/M04 A3024 RMK A01 T10151044  RH  081%=      5-min Rain = 0
KMNS 151320Z 32008KT M02/M04 A3024 RMK A01 T10151044  RH  081%=      5-min Rain = 0
KMNS 151325Z 31008KT M02/M05 A3024 RMK A01 T10161045  RH  082%=      5-min Rain = 0
KMNS 151330Z 31008KT M02/M05 A3024 RMK A01 T10161045  RH  082%=      5-min Rain = 0
KMNS 151335Z 31008KT M02/M05 A3024 RMK A01 T10171045  RH  082%=      5-min Rain = 0
KMNS 151340Z 31007KT M02/M05 A3025 RMK A01 T10181045  RH  082%=      5-min Rain = 0
KMNS 151345Z 31007KT M02/M05 A3025 RMK A01 T10181045  RH  083%=      5-min Rain = 0
KMNS 151350Z 31007KT M02/M04 A3025 RMK A01 T10171044  RH  082%=      5-min Rain = 0
KMNS 151355Z 31007KT M02/M04 A3025 RMK A01 T10151043  RH  082%=      5-min Rain = 0
KMNS 151400Z 31008KT M01/M04 A3025 RMK A01 T10131043  RH  081%=      5-min Rain = 0
KMNS 151405Z 32007KT M01/M04 A3025 RMK A01 T10111042  RH  080%=      5-min Rain = 0
KMNS 151410Z 32007KT M01/M04 A3025 RMK A01 T10091041  RH  080%=      5-min Rain = 0
KMNS 151415Z 32007KT M01/M04 A3025 RMK A01 T10071040  RH  079%=      5-min Rain = 0
KMNS 151420Z 32007KT M00/M04 A3025 RMK A01 T10041038  RH  079%=      5-min Rain = 0
KMNS 151425Z 31007KT M00/M04 A3026 RMK A01 T10021038  RH  078%=      5-min Rain = 0
KMNS 151430Z 31008KT 00/M04 A3026 RMK A01 T00011036  RH  077%=      5-min Rain = 0
KMNS 151435Z 32008KT 00/M04 A3026 RMK A01 T00031035  RH  076%=      5-min Rain = 0
KMNS 151440Z 32008KT 01/M04 A3026 RMK A01 T00061035  RH  075%=      5-min Rain = 0
KMNS 151445Z 32008KT 01/M03 A3026 RMK A01 T00081034  RH  074%=      5-min Rain = 0
KMNS 151450Z 32008KT 01/M03 A3026 RMK A01 T00101034  RH  073%=      5-min Rain = 0
KMNS 151455Z 32008KT 01/M03 A3027 RMK A01 T00131030  RH  074%=      5-min Rain = 0
KMNS 151500Z 32008KT 02/M03 A3027 RMK A01 T00161029  RH  073%=      5-min Rain = 0
KMNS 151505Z 32008KT 02/M03 A3027 RMK A01 T00181028  RH  072%=      5-min Rain = 0
KMNS 151510Z 32008KT 02/M03 A3027 RMK A01 T00211026  RH  072%=      5-min Rain = 0
KMNS 151515Z 32008KT 03/M02 A3027 RMK A01 T00261024  RH  071%=      5-min Rain = 0
KMNS 151520Z 33008KT 03/M02 A3027 RMK A01 T00281024  RH  069%=      5-min Rain = 0
KMNS 151525Z 33008KT 03/M02 A3027 RMK A01 T00311022  RH  069%=      5-min Rain = 0
KMNS 151530Z 33008KT 03/M02 A3028 RMK A01 T00341022  RH  068%=      5-min Rain = 0
KMNS 151535Z 33009KT 04/M02 A3028 RMK A01 T00371023  RH  066%=      5-min Rain = 0
KMNS 151540Z 33009KT 04/M02 A3028 RMK A01 T00391024  RH  064%=      5-min Rain = 0
KMNS 151545Z 32008KT 04/M02 A3028 RMK A01 T00431020  RH  064%=      5-min Rain = 0
KMNS 151550Z 32009KT 04/M02 A3028 RMK A01 T00441022  RH  063%=      5-min Rain = 0
KMNS 151555Z 32009KT 05/M02 A3028 RMK A01 T00461022  RH  062%=      5-min Rain = 0
KMNS 151600Z 32009KT 05/M02 A3028 RMK A01 T00471021  RH  062%=      5-min Rain = 0
KMNS 151605Z 32008KT 05/M02 A3028 RMK A01 T00491019  RH  062%=      5-min Rain = 0
KMNS 151610Z 32009KT 05/M02 A3028 RMK A01 T00521019  RH  061%=      5-min Rain = 0
KMNS 151615Z 32008KT 05/M02 A3028 RMK A01 T00541016  RH  061%=      5-min Rain = 0
KMNS 151620Z 32008KT 06/M01 A3027 RMK A01 T00571013  RH  061%=      5-min Rain = 0
KMNS 151625Z 32007KT 06/M01 A3028 RMK A01 T00601012  RH  061%=      5-min Rain = 0
KMNS 151630Z 32007KT 07/M01 A3028 RMK A01 T00651005  RH  062%=      5-min Rain = 0
KMNS 151635Z 32007KT 07/M01 A3028 RMK A01 T00661006  RH  060%=      5-min Rain = 0
KMNS 151640Z 33006KT 07/M00 A3027 RMK A01 T00701003  RH  060%=      5-min Rain = 0
KMNS 151645Z 35006KT 07/M01 A3027 RMK A01 T00721005  RH  059%=      5-min Rain = 0
KMNS 151650Z 34006KT 08/M00 A3027 RMK A01 T00761001  RH  059%=      5-min Rain = 0
KMNS 151655Z 34006KT 08/M01 A3027 RMK A01 T00761006  RH  057%=      5-min Rain = 0
KMNS 151700Z 34006KT 08/M01 A3027 RMK A01 T00791009  RH  055%=      5-min Rain = 0
KMNS 151705Z 36007KT 08/M02 A3027 RMK A01 T00801017  RH  051%=      5-min Rain = 0
KMNS 151710Z 35007KT 08/M02 A3027 RMK A01 T00821016  RH  051%=      5-min Rain = 0
KMNS 151715Z 00007KT 08/M02 A3027 RMK A01 T00841016  RH  050%=      5-min Rain = 0
KMNS 151720Z 01005KT 08/M02 A3027 RMK A01 T00841022  RH  048%=      5-min Rain = 0
KMNS 151725Z 35006KT 09/M01 A3027 RMK A01 T00871014  RH  050%=      5-min Rain = 0
KMNS 151730Z 35005KT 09/M02 A3027 RMK A01 T00881015  RH  049%=      5-min Rain = 0
KMNS 151735Z 00006KT 09/M01 A3027 RMK A01 T00881014  RH  049%=      5-min Rain = 0
KMNS 151740Z 33004KT 09/M02 A3027 RMK A01 T00911020  RH  046%=      5-min Rain = 0
KMNS 151745Z 34006KT 09/M02 A3027 RMK A01 T00921016  RH  047%=      5-min Rain = 0
KMNS 151750Z 00005KT 09/M03 A3027 RMK A01 T00911025  RH  044%=      5-min Rain = 0
KMNS 151755Z 35004KT 09/M03 A3027 RMK A01 T00941028  RH  043%=      5-min Rain = 0
KMNS 151800Z 00005KT 10/M02 A3027 RMK A01 T00961023  RH  044%=      5-min Rain = 0
KMNS 151805Z 33005G10KT 10/M02 A3026 RMK A01 T00971021  RH  044%=      5-min Rain = 0
KMNS 151810Z 35003KT 10/M03 A3026 RMK A01 T00981030  RH  041%=      5-min Rain = 0
KMNS 151815Z 29004KT 10/M03 A3026 RMK A01 T01021031  RH  040%=      5-min Rain = 0
KMNS 151820Z 31005KT 10/M03 A3026 RMK A01 T01001031  RH  040%=      5-min Rain = 0
KMNS 151825Z 31003G8KT 10/M04 A3026 RMK A01 T01001038  RH  038%=      5-min Rain = 0
KMNS 151830Z 29006KT 10/M04 A3025 RMK A01 T01021041  RH  037%=      5-min Rain = 0
KMNS 151835Z 30005KT 10/M04 A3025 RMK A01 T01041035  RH  038%=      5-min Rain = 0
KMNS 151840Z 33003KT 10/M04 A3025 RMK A01 T01021040  RH  037%=      5-min Rain = 0
KMNS 151845Z 34006KT 11/M03 A3025 RMK A01 T01051030  RH  039%=      5-min Rain = 0
KMNS 151850Z 00005KT 10/M04 A3024 RMK A01 T01021039  RH  037%=      5-min Rain = 0
KMNS 151855Z 34003KT 10/M04 A3024 RMK A01 T01041040  RH  037%=      5-min Rain = 0
KMNS 151900Z 32008KT 11/M03 A3024 RMK A01 T01081033  RH  037%=      5-min Rain = 0
KMNS 151905Z 34007G12KT 11/M03 A3024 RMK A01 T01091030  RH  038%=      5-min Rain = 0
KMNS 151910Z 33009KT 11/M03 A3023 RMK A01 T01131025  RH  039%=      5-min Rain = 0
KMNS 151915Z 33007KT 11/M04 A3023 RMK A01 T01091035  RH  037%=      5-min Rain = 0
KMNS 151920Z 30005G10KT 11/M05 A3023 RMK A01 T01101046  RH  034%=      5-min Rain = 0
KMNS 151925Z 33009KT 11/M03 A3022 RMK A01 T01121033  RH  036%=      5-min Rain = 0
KMNS 151930Z 34006KT 11/M03 A3022 RMK A01 T01121034  RH  036%=      5-min Rain = 0
KMNS 151935Z 30002G7KT 11/M05 A3022 RMK A01 T01131049  RH  032%=      5-min Rain = 0
KMNS 151940Z 34005G10KT 11/M05 A3022 RMK A01 T01141045  RH  033%=      5-min Rain = 0
KMNS 151945Z 31007KT 11/M05 A3021 RMK A01 T01131045  RH  033%=      5-min Rain = 0
KMNS 151950Z 35007KT 11/M04 A3021 RMK A01 T01131041  RH  034%=      5-min Rain = 0
KMNS 151955Z 29003KT 11/M05 A3021 RMK A01 T01141049  RH  032%=      5-min Rain = 0
KMNS 152000Z 26004KT 12/M05 A302 RMK A01 T01171049  RH  031%=      5-min Rain = 0
KMNS 152005Z 30004KT 12/M05 A302 RMK A01 T01201046  RH  032%=      5-min Rain = 0
KMNS 152010Z 35006KT 12/M04 A302 RMK A01 T01181040  RH  033%=      5-min Rain = 0
KMNS 152015Z 33005KT 12/M05 A3019 RMK A01 T01181045  RH  032%=      5-min Rain = 0
KMNS 152020Z 01004KT 12/M05 A3019 RMK A01 T01181048  RH  031%=      5-min Rain = 0
KMNS 152025Z 33004KT 12/M04 A3019 RMK A01 T01221042  RH  032%=      5-min Rain = 0
KMNS 152030Z 31005KT 12/M05 A3019 RMK A01 T01201051  RH  030%=      5-min Rain = 0
KMNS 152035Z 31006KT 12/M05 A3018 RMK A01 T01201048  RH  031%=      5-min Rain = 0
KMNS 152040Z 32005KT 12/M05 A3018 RMK A01 T01211049  RH  031%=      5-min Rain = 0
KMNS 152045Z 29005G10KT 13/M04 A3018 RMK A01 T01271041  RH  031%=      5-min Rain = 0
KMNS 152050Z 26004KT 13/M04 A3018 RMK A01 T01271044  RH  030%=      5-min Rain = 0
KMNS 152055Z 26006KT 13/M04 A3017 RMK A01 T01281041  RH  031%=      5-min Rain = 0
KMNS 152100Z 31006KT 13/M04 A3017 RMK A01 T01251043  RH  031%=      5-min Rain = 0
KMNS 152105Z 29006KT 12/M04 A3017 RMK A01 T01241043  RH  031%=      5-min Rain = 0
KMNS 152110Z 31007KT 13/M04 A3017 RMK A01 T01261042  RH  031%=      5-min Rain = 0
KMNS 152115Z 30006G12KT 13/M04 A3017 RMK A01 T01251042  RH  031%=      5-min Rain = 0
KMNS 152120Z 28007KT 13/M04 A3017 RMK A01 T01261044  RH  031%=      5-min Rain = 0
KMNS 152125Z 23001KT 13/M05 A3016 RMK A01 T01271046  RH  030%=      5-min Rain = 0
KMNS 152130Z 27006KT 13/M04 A3016 RMK A01 T01331043  RH  029%=      5-min Rain = 0
KMNS 152135Z 32006KT 13/M04 A3016 RMK A01 T01311043  RH  030%=      5-min Rain = 0
KMNS 152140Z 29008KT 13/M05 A3016 RMK A01 T01311046  RH  029%=      5-min Rain = 0
KMNS 152145Z 28007G12KT 13/M05 A3016 RMK A01 T01291050  RH  029%=      5-min Rain = 0
KMNS 152150Z 27006KT 13/M05 A3016 RMK A01 T01301052  RH  028%=      5-min Rain = 0
KMNS 152155Z 27006G11KT 13/M05 A3015 RMK A01 T01321053  RH  028%=      5-min Rain = 0
KMNS 152200Z 28006KT 13/M05 A3015 RMK A01 T01341051  RH  028%=      5-min Rain = 0
KMNS 152205Z 32007G12KT 13/M05 A3015 RMK A01 T01321051  RH  028%=      5-min Rain = 0
KMNS 152210Z 33003KT 13/M05 A3015 RMK A01 T01331049  RH  028%=      5-min Rain = 0
KMNS 152215Z 31005G11KT 13/M06 A3015 RMK A01 T01331057  RH  027%=      5-min Rain = 0
KMNS 152220Z 31006G11KT 13/M06 A3015 RMK A01 T01321062  RH  026%=      5-min Rain = 0
KMNS 152225Z 29006G11KT 14/M06 A3015 RMK A01 T01371055  RH  026%=      5-min Rain = 0
KMNS 152230Z 29005KT 14/M06 A3014 RMK A01 T01371059  RH  026%=      5-min Rain = 0
KMNS 152235Z 28004KT 13/M07 A3014 RMK A01 T01341065  RH  025%=      5-min Rain = 0
KMNS 152240Z 26008KT 14/M05 A3014 RMK A01 T01351053  RH  027%=      5-min Rain = 0
KMNS 152245Z 25007KT 13/M05 A3014 RMK A01 T01341051  RH  028%=      5-min Rain = 0
KMNS 152250Z 25005KT 13/M05 A3014 RMK A01 T01341051  RH  027%=      5-min Rain = 0
KMNS 152255Z 25007KT 13/M05 A3014 RMK A01 T01331052  RH  028%=      5-min Rain = 0
KMNS 152300Z 25009KT 13/M05 A3014 RMK A01 T01321047  RH  029%=      5-min Rain = 0
KMNS 152305Z 22005KT 13/M05 A3014 RMK A01 T01321050  RH  028%=      5-min Rain = 0
KMNS 152310Z 24004KT 13/M05 A3014 RMK A01 T01331053  RH  027%=      5-min Rain = 0
KMNS 152315Z 25008KT 13/M05 A3013 RMK A01 T01311048  RH  029%=      5-min Rain = 0
KMNS 152320Z 26008KT 13/M05 A3013 RMK A01 T01321046  RH  029%=      5-min Rain = 0
KMNS 152325Z 25006KT 13/M05 A3013 RMK A01 T01301049  RH  029%=      5-min Rain = 0
KMNS 152330Z 24005KT 13/M05 A3013 RMK A01 T01301052  RH  028%=      5-min Rain = 0
KMNS 152335Z 26006G12KT 13/M05 A3013 RMK A01 T01301049  RH  029%=      5-min Rain = 0
KMNS 152340Z 28007KT 13/M05 A3013 RMK A01 T01291049  RH  029%=      5-min Rain = 0
KMNS 152345Z 26006KT 13/M05 A3013 RMK A01 T01281051  RH  029%=      5-min Rain = 0
KMNS 152350Z 25006KT 13/M05 A3013 RMK A01 T01271051  RH  029%=      5-min Rain = 0
KMNS 152355Z 24007KT 13/M05 A3013 RMK A01 T01251050  RH  029%=      5-min Rain = 0
KMNS 160000Z 26005KT 12/M05 A3013 RMK A01 T01241049  RH  030%=      5-min Rain = 0
KMNS 160005Z 26006KT 12/M05 A3012 RMK A01 T01221049  RH  030%=      5-min Rain = 0
KMNS 160010Z 27007KT 12/M05 A3012 RMK A01 T01191045  RH  032%=      5-min Rain = 0
KMNS 160015Z 26006KT 12/M04 A3012 RMK A01 T01171044  RH  033%=      5-min Rain = 0
KMNS 160020Z 26006KT 11/M04 A3012 RMK A01 T01131041  RH  034%=      5-min Rain = 0
KMNS 160025Z 25006KT 11/M04 A3012 RMK A01 T01091041  RH  035%=      5-min Rain = 0
KMNS 160030Z 25005KT 11/M04 A3012 RMK A01 T01051036  RH  037%=      5-min Rain = 0
KMNS 160035Z 25005KT 10/M03 A3012 RMK A01 T00991030  RH  041%=      5-min Rain = 0
KMNS 160040Z 25004KT 09/M03 A3012 RMK A01 T00931030  RH  042%=      5-min Rain = 0
KMNS 160045Z 24004KT 09/M04 A3012 RMK A01 T00931036  RH  041%=      5-min Rain = 0
KMNS 160050Z 24004KT 09/M03 A3012 RMK A01 T00911034  RH  042%=      5-min Rain = 0
KMNS 160055Z 24003KT 09/M04 A3012 RMK A01 T00931037  RH  040%=      5-min Rain = 0
KMNS 160100Z 23003KT 09/M03 A3012 RMK A01 T00901034  RH  042%=      5-min Rain = 0
KMNS 160105Z 23003KT 09/M04 A3012 RMK A01 T00901038  RH  041%=      5-min Rain = 0
KMNS 160110Z 22003KT 09/M03 A3012 RMK A01 T00851029  RH  045%=      5-min Rain = 0
KMNS 160115Z 21003KT 08/M02 A3012 RMK A01 T00791020  RH  050%=      5-min Rain = 0
KMNS 160120Z 21003KT 08/M02 A3012 RMK A01 T00751022  RH  051%=      5-min Rain = 0
KMNS 160125Z 21003KT 07/M03 A3012 RMK A01 T00731026  RH  050%=      5-min Rain = 0
KMNS 160130Z 22003KT 07/M03 A3012 RMK A01 T00711031  RH  049%=      5-min Rain = 0
KMNS 160135Z 22003KT 08/M04 A3012 RMK A01 T00771036  RH  045%=      5-min Rain = 0
KMNS 160140Z 22003KT 08/M03 A3012 RMK A01 T00771033  RH  046%=      5-min Rain = 0
KMNS 160145Z 20004KT 07/M02 A3012 RMK A01 T00741020  RH  052%=      5-min Rain = 0
KMNS 160150Z 20004KT 07/M02 A3012 RMK A01 T00661016  RH  056%=      5-min Rain = 0
KMNS 160155Z 20004KT 06/M02 A3012 RMK A01 T00641015  RH  058%=      5-min Rain = 0
KMNS 160200Z 20004KT 06/M02 A3012 RMK A01 T00611018  RH  058%=      5-min Rain = 0
KMNS 160205Z 20004KT 06/M02 A3012 RMK A01 T00591018  RH  059%=      5-min Rain = 0
KMNS 160210Z 20005KT 06/M02 A3012 RMK A01 T00601019  RH  058%=      5-min Rain = 0
KMNS 160215Z 20005KT 06/M02 A3012 RMK A01 T00591022  RH  057%=      5-min Rain = 0
KMNS 160220Z 20005KT 06/M02 A3013 RMK A01 T00591022  RH  057%=      5-min Rain = 0
KMNS 160225Z 21005KT 06/M02 A3013 RMK A01 T00591022  RH  056%=      5-min Rain = 0
KMNS 160230Z 21006KT 06/M02 A3013 RMK A01 T00551018  RH  060%=      5-min Rain = 0
KMNS 160235Z 20007KT 05/M02 A3013 RMK A01 T00541018  RH  060%=      5-min Rain = 0
KMNS 160240Z 20007KT 06/M02 A3013 RMK A01 T00551017  RH  060%=      5-min Rain = 0
KMNS 160245Z 21008KT 06/M02 A3013 RMK A01 T00571021  RH  058%=      5-min Rain = 0
KMNS 160250Z 21008KT 06/M02 A3013 RMK A01 T00591023  RH  056%=      5-min Rain = 0
KMNS 160255Z 21008KT 06/M03 A3013 RMK A01 T00601025  RH  055%=      5-min Rain = 0
KMNS 160300Z 21007KT 06/M02 A3013 RMK A01 T00591024  RH  056%=      5-min Rain = 0
KMNS 160305Z 22007KT 06/M03 A3013 RMK A01 T00591026  RH  055%=      5-min Rain = 0
KMNS 160310Z 23007KT 06/M03 A3013 RMK A01 T00601027  RH  054%=      5-min Rain = 0
KMNS 160315Z 24006KT 06/M02 A3013 RMK A01 T00561024  RH  057%=      5-min Rain = 0
KMNS 160320Z 24005KT 05/M03 A3014 RMK A01 T00541031  RH  055%=      5-min Rain = 0
KMNS 160325Z 23005KT 05/M03 A3014 RMK A01 T00531034  RH  054%=      5-min Rain = 0
KMNS 160330Z 23004KT 04/M03 A3014 RMK A01 T00441031  RH  058%=      5-min Rain = 0
KMNS 160335Z 23003KT 04/M03 A3014 RMK A01 T00391028  RH  062%=      5-min Rain = 0
KMNS 160340Z 23003KT 04/M03 A3014 RMK A01 T00391029  RH  062%=      5-min Rain = 0
KMNS 160345Z 22003KT 04/M03 A3014 RMK A01 T00401030  RH  061%=      5-min Rain = 0
KMNS 160350Z 24004KT 04/M03 A3014 RMK A01 T00441031  RH  059%=      5-min Rain = 0
KMNS 160355Z 23003KT 05/M03 A3014 RMK A01 T00481032  RH  057%=      5-min Rain = 0
KMNS 160400Z 24006KT 05/M03 A3014 RMK A01 T00451030  RH  059%=      5-min Rain = 0
KMNS 160405Z 25006KT 04/M03 A3014 RMK A01 T00381027  RH  063%=      5-min Rain = 0
KMNS 160410Z 25005KT 03/M03 A3014 RMK A01 T00331025  RH  067%=      5-min Rain = 0
KMNS 160415Z 26004KT 03/M03 A3014 RMK A01 T00251030  RH  068%=      5-min Rain = 0
KMNS 160420Z 25005KT 02/M03 A3014 RMK A01 T00231027  RH  070%=      5-min Rain = 0
KMNS 160425Z 27006KT 02/M03 A3014 RMK A01 T00191028  RH  072%=      5-min Rain = 0
KMNS 160430Z 26006KT 02/M03 A3013 RMK A01 T00221026  RH  071%=      5-min Rain = 0
KMNS 160435Z 26007KT 02/M03 A3013 RMK A01 T00231028  RH  070%=      5-min Rain = 0
KMNS 160440Z 26007KT 03/M03 A3013 RMK A01 T00271028  RH  068%=      5-min Rain = 0
KMNS 160445Z 26007KT 03/M03 A3013 RMK A01 T00251029  RH  069%=      5-min Rain = 0
KMNS 160450Z 25008KT 03/M03 A3013 RMK A01 T00271028  RH  068%=      5-min Rain = 0
KMNS 160455Z 25008KT 03/M03 A3013 RMK A01 T00271028  RH  068%=      5-min Rain = 0
KMNS 160500Z 25008KT 03/M03 A3013 RMK A01 T00251029  RH  069%=      5-min Rain = 0
KMNS 160505Z 25007KT 02/M03 A3013 RMK A01 T00241029  RH  069%=      5-min Rain = 0
KMNS 160510Z 25007KT 02/M03 A3013 RMK A01 T00241030  RH  068%=      5-min Rain = 0
KMNS 160515Z 25007KT 03/M03 A3013 RMK A01 T00261030  RH  067%=      5-min Rain = 0
KMNS 160520Z 25007KT 03/M03 A3013 RMK A01 T00261030  RH  067%=      5-min Rain = 0
KMNS 160525Z 25008KT 03/M03 A3013 RMK A01 T00281031  RH  066%=      5-min Rain = 0
KMNS 160530Z 25008KT 03/M03 A3012 RMK A01 T00301032  RH  064%=      5-min Rain = 0
KMNS 160535Z 25008KT 03/M03 A3012 RMK A01 T00281032  RH  065%=      5-min Rain = 0
KMNS 160540Z 25008KT 03/M03 A3012 RMK A01 T00271032  RH  066%=      5-min Rain = 0
KMNS 160545Z 25008KT 03/M03 A3012 RMK A01 T00291032  RH  065%=      5-min Rain = 0
KMNS 160550Z 25008KT 03/M03 A3012 RMK A01 T00281033  RH  065%=      5-min Rain = 0
KMNS 160555Z 25008KT 03/M03 A3012 RMK A01 T00261033  RH  066%=      5-min Rain = 0

Page generated in 0.0397 seconds.